Garland, NE (68360)

11:49 AM CDT on September 02, 2014 (GMT -0500)
Suhr Lichty Insurance Downtown | Change Station
CLOSE
Current Station
Personal Weather Station
Location: Seward, NE
Elevation: 1493 ft
Nearby Weather Stations
Active Advisory: Flood Warning

Elev 1493 ft 40.91 °N, 97.10 °W | Updated 10 minutes ago

Clear
Clear
74.2 °F
Feels Like 77 °F
N
0.0
Wind Variable Wind from WSW
Gusts 3.0 mph

Today
High -- | Low -- °F
--% Chance of Precip.
Yesterday
High -- | Low -- °F
Precip. -- in
6:55 AM 7:58 PM
First Quarter, 53% visible
Pressure 30.01 in
Visibility 10.0 miles
Clouds Clear
Heat Index 77 °F
Dew Point 58 °F
Humidity 58%
Rainfall 0.00 in
Snow Depth Not available.
UV 6 out of 12
Pollen 9.90 out of 12
Air Quality Not available.
Flu Activity Not available.
METAR KLNK 021554Z 00000KT 10SM CLR 22/14 A3003 RMK AO2 SLP160 T02170139

More Conditions Fewer Conditions

Pressure 30.01 in
Visibility 10.0 miles
Clouds Clear
Heat Index 77 °F
Dew Point 58 °F
Humidity 58%
Rainfall 0.00 in
Snow Depth Not available.
UV 6 out of 12
Pollen 9.90 out of 12
Air Quality Not available.
Flu Activity Not available.
METAR KLNK 021554Z 00000KT 10SM CLR 22/14 A3003 RMK AO2 SLP160 T02170139

More Conditions Fewer Conditions

10-Day Weather Forecast

Almanac

Astronomy

Sep. 02, 2014 Rise Set
Actual Time 6:55 AM CDT 7:58 PM CDT
Civil Twilight 6:27 AM CDT 8:26 PM CDT
Nautical Twilight 5:53 AM CDT 9:00 PM CDT
Astronomical Twilight 5:18 AM CDT 9:35 PM CDT
Moon 2:44 PM CDT No Moon Set
Length of Visible Light 13h 59m
Length of Day
13h 02m
Tomorrow will be 2m 37s shorter.
First Quarter, 53% of the Moon is Illuminated
Today
First Quarter
Sep 8
Full
Sep 15
Last Quarter
Sep 24
New
Oct 1
First Quarter

Today's Extremes

State Highs State Lows

Community

WunderPhotos

Upload Photos

1,749,716 photos uploaded!

WunderBlogs® & News

Nearby

Snow Depth

Station Depth Elevation
No new snow has been reported.

Earthquake Activity

City Distance Mag. Time & Date
No recent earthquake activity has been reported nearby.
Minimum magnitude displayed is 2.5.

Coastal Water Temperatures

Place Temperature
No Stations Reporting

Nearby Weather Stations